createdAt,value
2022-12-27T00:03:00.587Z,22.5
2022-12-27T00:07:36.484Z,22.5
2022-12-27T00:12:48.591Z,22.5
2022-12-27T00:18:11.472Z,22.5
2022-12-27T00:23:36.160Z,22.5
2022-12-27T00:28:42.843Z,22.5
2022-12-27T00:34:04.999Z,22.5
2022-12-27T00:38:56.813Z,22.5
2022-12-27T00:44:19.184Z,22.5
2022-12-27T00:49:41.426Z,22.5
2022-12-27T00:54:47.724Z,22.5
2022-12-27T00:59:55.241Z,22.5
2022-12-27T01:05:03.200Z,22.5
2022-12-27T01:09:54.448Z,22.6
2022-12-27T01:15:16.459Z,22.5
2022-12-27T01:20:39.247Z,22.6
2022-12-27T01:26:01.598Z,22.6
2022-12-27T01:31:08.594Z,22.6
2022-12-27T01:36:31.712Z,22.6
2022-12-27T01:41:54.696Z,22.6
2022-12-27T01:47:00.829Z,22.6
2022-12-27T01:52:07.993Z,22.6
2022-12-27T01:57:14.668Z,22.6
2022-12-27T02:02:38.140Z,22.6
2022-12-27T02:08:00.710Z,22.6
2022-12-27T02:13:23.764Z,22.6
2022-12-27T02:18:46.588Z,22.6
2022-12-27T02:24:12.861Z,22.6
2022-12-27T02:29:36.458Z,22.6
2022-12-27T02:34:59.641Z,22.6
2022-12-27T02:40:06.679Z,22.6
2022-12-27T02:45:29.328Z,22.6
2022-12-27T02:50:54.055Z,22.6
2022-12-27T02:56:17.186Z,22.7
2022-12-27T03:01:39.690Z,22.7
2022-12-27T03:07:08.632Z,22.7
2022-12-27T03:12:15.765Z,22.7
2022-12-27T03:17:43.344Z,22.7
2022-12-27T03:23:05.496Z,22.8
2022-12-27T03:28:28.052Z,22.9
2022-12-27T03:33:51.173Z,22.9
2022-12-27T03:38:58.032Z,22.9
2022-12-27T03:44:05.826Z,22.9
2022-12-27T03:49:28.683Z,22.9
2022-12-27T03:54:50.712Z,22.8
2022-12-27T04:00:04.589Z,22.8
2022-12-27T04:05:13.005Z,22.7
2022-12-27T04:10:35.195Z,22.7
2022-12-27T04:15:57.817Z,22.7
2022-12-27T04:21:05.138Z,22.6
2022-12-27T04:26:27.058Z,22.6
2022-12-27T04:31:34.172Z,22.6
2022-12-27T04:36:41.876Z,22.6
2022-12-27T04:42:04.168Z,22.6
2022-12-27T04:47:28.878Z,22.6
2022-12-27T04:52:51.678Z,22.6
2022-12-27T04:58:14.533Z,22.6
2022-12-27T05:03:28.231Z,22.6
2022-12-27T05:08:35.374Z,22.6
2022-12-27T05:13:58.010Z,22.6
2022-12-27T05:19:20.912Z,22.6
2022-12-27T05:24:29.752Z,22.6
2022-12-27T05:29:52.203Z,22.6
2022-12-27T05:35:20.051Z,22.6
2022-12-27T05:40:46.205Z,22.6
2022-12-27T05:46:09.152Z,22.6
2022-12-27T05:51:31.024Z,22.6
2022-12-27T05:56:56.973Z,22.6
2022-12-27T06:02:20.473Z,22.6
2022-12-27T06:07:42.865Z,22.6
2022-12-27T06:13:05.486Z,22.7
2022-12-27T06:18:28.706Z,22.8
2022-12-27T06:23:55.871Z,22.7
2022-12-27T06:29:18.642Z,22.6
2022-12-27T06:34:41.386Z,22.6
2022-12-27T06:39:49.048Z,22.5
2022-12-27T06:44:56.448Z,22.5
2022-12-27T06:50:20.456Z,22.5
2022-12-27T06:55:43.010Z,22.5
2022-12-27T07:01:06.284Z,22.4
2022-12-27T07:06:30.489Z,22.4
2022-12-27T07:11:52.868Z,22.4
2022-12-27T07:17:15.799Z,22.4
2022-12-27T07:22:37.939Z,22.4
2022-12-27T07:28:05.275Z,22.4
2022-12-27T07:33:28.732Z,22.4
2022-12-27T07:38:53.365Z,22.4
2022-12-27T07:44:21.200Z,22.4
2022-12-27T07:49:50.631Z,36.3
2022-12-27T07:55:13.800Z,30.7
2022-12-27T08:00:41.118Z,29.2
2022-12-27T08:06:05.279Z,40.1
2022-12-27T08:11:12.599Z,40.4
2022-12-27T08:16:19.432Z,41.4
2022-12-27T08:21:42.934Z,42.2
2022-12-27T08:27:11.495Z,43.1
2022-12-27T08:32:19.128Z,43.8
2022-12-27T08:38:51.768Z,44.7
2022-12-27T08:44:18.091Z,45.8
2022-12-27T08:49:41.601Z,46.6
2022-12-27T08:55:20.864Z,47.4
2022-12-27T09:00:46.104Z,48.3
2022-12-27T09:05:58.399Z,49.1
2022-12-27T09:11:21.099Z,49.9
2022-12-27T09:16:43.723Z,49.1
2022-12-27T09:22:05.857Z,47.7
2022-12-27T09:27:13.853Z,48.6
2022-12-27T09:32:40.421Z,49.8
2022-12-27T09:37:52.435Z,51
2022-12-27T09:49:55.585Z,52.8
2022-12-27T09:55:21.834Z,53.5
2022-12-27T10:01:25.397Z,54.2
2022-12-27T10:07:35.656Z,54.9
2022-12-27T10:13:03.038Z,50.6
2022-12-27T10:18:26.740Z,45.8
2022-12-27T10:23:55.579Z,42.8
2022-12-27T10:29:02.801Z,43.6
2022-12-27T10:34:27.427Z,45.2
2022-12-27T10:39:50.293Z,46.3
2022-12-27T10:45:12.661Z,47.6
2022-12-27T10:51:14.840Z,47.6
2022-12-27T10:56:38.303Z,49.1
2022-12-27T11:02:07.602Z,48.9
2022-12-27T11:07:30.698Z,49.6
2022-12-27T11:12:58.193Z,50.2
2022-12-27T11:18:26.285Z,51.1
2022-12-27T11:23:56.923Z,51.7
2022-12-27T11:29:23.467Z,52.6
2022-12-27T11:34:47.675Z,53.4
2022-12-27T11:40:10.474Z,53.6
2022-12-27T11:50:33.737Z,51.6
2022-12-27T11:55:56.599Z,50.3
2022-12-27T12:01:22.333Z,49.5
2022-12-27T12:06:50.974Z,48.2
2022-12-27T12:12:13.877Z,44.8
2022-12-27T12:17:21.052Z,38.8
2022-12-27T12:22:46.738Z,42.4
2022-12-27T12:28:30.265Z,38.3
2022-12-27T12:34:10.339Z,32.5
2022-12-27T12:39:32.791Z,33.4
2022-12-27T12:44:58.314Z,33.3
2022-12-27T12:50:09.604Z,33.3
2022-12-27T12:55:38.597Z,33.3
2022-12-27T13:01:02.027Z,33.8
2022-12-27T13:06:26.244Z,34.1
2022-12-27T13:11:55.283Z,34.1
2022-12-27T13:17:10.101Z,33.7
2022-12-27T13:22:32.548Z,33.3
2022-12-27T13:27:55.199Z,32.8
2022-12-27T13:33:18.221Z,32.4
2022-12-27T13:38:44.727Z,30.8
2022-12-27T13:44:07.405Z,27.9
2022-12-27T13:49:33.738Z,26.4
2022-12-27T13:54:56.002Z,29.5
2022-12-27T14:00:55.579Z,26.4
2022-12-27T14:06:22.506Z,25.4
2022-12-27T14:11:34.306Z,24.7
2022-12-27T14:16:59.504Z,24.2
2022-12-27T14:22:22.707Z,23.8
2022-12-27T14:27:45.441Z,23.6
2022-12-27T14:33:14.801Z,23.3
2022-12-27T14:38:40.511Z,23.1
2022-12-27T14:43:47.735Z,22.9
2022-12-27T14:49:10.401Z,22.8
2022-12-27T14:55:10.311Z,22.6
2022-12-27T15:00:39.187Z,22.3
2022-12-27T15:06:10.795Z,21.9
2022-12-27T15:11:39.717Z,20.7
2022-12-27T15:17:05.254Z,20.1
2022-12-27T15:22:31.285Z,19.7
2022-12-27T15:27:55.193Z,19.5
2022-12-27T15:33:25.859Z,19.3
2022-12-27T15:38:53.293Z,19.2
2022-12-27T15:44:22.421Z,19
2022-12-27T15:49:44.682Z,18.9
2022-12-27T15:55:10.499Z,18.8
2022-12-27T16:00:34.588Z,18.8
2022-12-27T16:10:28.010Z,18.6
2022-12-27T16:15:24.339Z,18.6
2022-12-27T16:20:31.751Z,18.5
2022-12-27T16:26:00.045Z,18.4
2022-12-27T16:31:22.881Z,18.4
2022-12-27T16:36:51.192Z,18.4
2022-12-27T16:42:17.670Z,18.3
2022-12-27T16:47:46.048Z,18.3
2022-12-27T16:52:54.680Z,18.3
2022-12-27T16:58:21.463Z,18.2
2022-12-27T17:03:52.048Z,18.1
2022-12-27T17:09:54.664Z,18.1
2022-12-27T17:15:17.990Z,18.1
2022-12-27T17:20:41.350Z,18.1
2022-12-27T17:25:52.078Z,18.1
2022-12-27T17:31:21.063Z,18
2022-12-27T17:36:19.808Z,18
2022-12-27T17:41:15.343Z,18
2022-12-27T17:46:38.791Z,17.9
2022-12-27T17:51:50.086Z,17.9
2022-12-27T17:57:13.664Z,17.9
2022-12-27T18:02:25.197Z,17.9
2022-12-27T18:07:55.526Z,17.8
2022-12-27T18:13:06.665Z,17.8
2022-12-27T18:18:19.771Z,17.8
2022-12-27T18:23:27.323Z,17.7
2022-12-27T18:28:50.718Z,17.7
2022-12-27T18:34:13.210Z,17.7
2022-12-27T18:39:40.054Z,17.7
2022-12-27T18:45:02.933Z,17.6
2022-12-27T18:50:25.849Z,17.6
2022-12-27T18:55:48.818Z,17.7
2022-12-27T19:01:12.658Z,17.6
2022-12-27T19:06:26.665Z,17.6
2022-12-27T19:11:53.034Z,17.6
2022-12-27T19:17:15.387Z,17.6
2022-12-27T19:22:37.699Z,17.6
2022-12-27T19:28:00.777Z,17.6
2022-12-27T19:33:24.082Z,17.6
2022-12-27T19:38:48.109Z,17.6
2022-12-27T19:44:14.348Z,17.6
2022-12-27T19:50:21.230Z,17.6
2022-12-27T19:55:36.674Z,17.7
2022-12-27T20:01:02.401Z,17.6
2022-12-27T20:07:21.623Z,17.7
2022-12-27T20:12:28.993Z,17.7
2022-12-27T20:17:57.267Z,17.9
2022-12-27T20:23:19.622Z,18.4
2022-12-27T20:28:42.089Z,19.4
2022-12-27T20:33:58.547Z,20.8
2022-12-27T20:39:21.175Z,22.1
2022-12-27T20:44:43.871Z,23.4
2022-12-27T20:50:07.252Z,24.8
2022-12-27T20:55:34.908Z,26
2022-12-27T21:00:57.877Z,27.1
2022-12-27T21:06:30.805Z,28.1
2022-12-27T21:11:58.007Z,29.1
2022-12-27T21:17:22.224Z,29.6
2022-12-27T21:22:49.915Z,28.7
2022-12-27T21:28:18.333Z,28.4
2022-12-27T21:33:41.069Z,28.3
2022-12-27T21:38:52.733Z,28.3
2022-12-27T21:44:14.660Z,28.3
2022-12-27T21:49:39.651Z,28.3
2022-12-27T21:55:09.821Z,28.3
2022-12-27T22:00:16.179Z,27.9
2022-12-27T22:05:53.305Z,27.4
2022-12-27T22:11:19.663Z,26.6
2022-12-27T22:16:32.224Z,25.5
2022-12-27T22:21:54.993Z,24.7
2022-12-27T22:27:17.713Z,24.1
2022-12-27T22:32:26.541Z,23.6
2022-12-27T22:37:34.113Z,23.2
2022-12-27T22:43:27.826Z,22.9
2022-12-27T22:49:19.444Z,22.7
2022-12-27T22:55:03.746Z,22.4
2022-12-27T23:00:28.028Z,22.3
2022-12-27T23:05:36.707Z,22.2
2022-12-27T23:11:36.342Z,22.1
2022-12-27T23:16:44.058Z,22
2022-12-27T23:22:29.312Z,21.9
2022-12-27T23:27:52.366Z,21.9
2022-12-27T23:33:33.767Z,21.9
2022-12-27T23:39:00.496Z,21.9
2022-12-27T23:44:33.558Z,21.8
2022-12-27T23:49:26.713Z,21.8
2022-12-27T23:54:36.430Z,21.8
